sensor_id;sensor_type;location;lat;lon;timestamp;P1;durP1;ratioP1;P2;durP2;ratioP2
32329;SDS011;18807;52.434;13.238;2023-02-19T00:03:41;5.93;;;3.85;;
32329;SDS011;18807;52.434;13.238;2023-02-19T00:11:20;6.20;;;3.17;;
32329;SDS011;18807;52.434;13.238;2023-02-19T00:18:57;6.60;;;3.05;;
32329;SDS011;18807;52.434;13.238;2023-02-19T00:26:33;6.60;;;3.70;;
32329;SDS011;18807;52.434;13.238;2023-02-19T00:34:09;6.43;;;3.85;;
32329;SDS011;18807;52.434;13.238;2023-02-19T00:41:44;7.65;;;4.15;;
32329;SDS011;18807;52.434;13.238;2023-02-19T00:49:20;6.07;;;4.10;;
32329;SDS011;18807;52.434;13.238;2023-02-19T00:56:55;6.78;;;4.15;;
32329;SDS011;18807;52.434;13.238;2023-02-19T01:04:30;6.77;;;4.27;;
32329;SDS011;18807;52.434;13.238;2023-02-19T01:12:05;7.35;;;3.80;;
32329;SDS011;18807;52.434;13.238;2023-02-19T01:27:14;7.47;;;4.13;;
32329;SDS011;18807;52.434;13.238;2023-02-19T01:34:50;7.23;;;3.47;;
32329;SDS011;18807;52.434;13.238;2023-02-19T01:42:24;5.50;;;3.60;;
32329;SDS011;18807;52.434;13.238;2023-02-19T01:49:59;6.63;;;4.00;;
32329;SDS011;18807;52.434;13.238;2023-02-19T01:57:34;6.85;;;3.83;;
32329;SDS011;18807;52.434;13.238;2023-02-19T02:05:16;5.70;;;3.60;;
32329;SDS011;18807;52.434;13.238;2023-02-19T02:12:57;7.43;;;4.20;;
32329;SDS011;18807;52.434;13.238;2023-02-19T02:20:33;7.10;;;3.87;;
32329;SDS011;18807;52.434;13.238;2023-02-19T02:28:27;6.50;;;4.22;;
32329;SDS011;18807;52.434;13.238;2023-02-19T02:36:22;6.75;;;4.05;;
32329;SDS011;18807;52.434;13.238;2023-02-19T02:44:00;8.23;;;4.70;;
32329;SDS011;18807;52.434;13.238;2023-02-19T02:51:36;5.67;;;4.20;;
32329;SDS011;18807;52.434;13.238;2023-02-19T02:59:15;8.43;;;5.15;;
32329;SDS011;18807;52.434;13.238;2023-02-19T03:06:53;7.97;;;5.03;;
32329;SDS011;18807;52.434;13.238;2023-02-19T03:14:30;12.07;;;5.22;;
32329;SDS011;18807;52.434;13.238;2023-02-19T03:22:30;10.68;;;5.07;;
32329;SDS011;18807;52.434;13.238;2023-02-19T03:30:07;7.07;;;4.28;;
32329;SDS011;18807;52.434;13.238;2023-02-19T03:37:49;8.85;;;4.20;;
32329;SDS011;18807;52.434;13.238;2023-02-19T03:45:32;9.38;;;4.10;;
32329;SDS011;18807;52.434;13.238;2023-02-19T03:53:16;15.50;;;4.63;;
32329;SDS011;18807;52.434;13.238;2023-02-19T04:01:01;8.93;;;3.80;;
32329;SDS011;18807;52.434;13.238;2023-02-19T04:08:43;7.18;;;3.42;;
32329;SDS011;18807;52.434;13.238;2023-02-19T04:16:21;9.45;;;2.92;;
32329;SDS011;18807;52.434;13.238;2023-02-19T04:24:01;4.72;;;2.35;;
32329;SDS011;18807;52.434;13.238;2023-02-19T04:31:56;4.63;;;1.73;;
32329;SDS011;18807;52.434;13.238;2023-02-19T04:39:32;8.05;;;1.98;;
32329;SDS011;18807;52.434;13.238;2023-02-19T04:47:07;7.07;;;2.65;;
32329;SDS011;18807;52.434;13.238;2023-02-19T04:54:43;4.13;;;2.60;;
32329;SDS011;18807;52.434;13.238;2023-02-19T05:02:17;5.57;;;2.03;;
32329;SDS011;18807;52.434;13.238;2023-02-19T05:10:10;6.13;;;2.65;;
32329;SDS011;18807;52.434;13.238;2023-02-19T05:17:44;4.55;;;2.00;;
32329;SDS011;18807;52.434;13.238;2023-02-19T05:25:19;5.43;;;2.27;;
32329;SDS011;18807;52.434;13.238;2023-02-19T05:32:53;4.22;;;2.67;;
32329;SDS011;18807;52.434;13.238;2023-02-19T05:40:29;4.40;;;2.03;;
32329;SDS011;18807;52.434;13.238;2023-02-19T05:48:03;5.90;;;2.30;;
32329;SDS011;18807;52.434;13.238;2023-02-19T05:55:39;8.30;;;2.30;;
32329;SDS011;18807;52.434;13.238;2023-02-19T06:03:13;3.72;;;1.90;;
32329;SDS011;18807;52.434;13.238;2023-02-19T06:10:48;4.47;;;2.20;;
32329;SDS011;18807;52.434;13.238;2023-02-19T06:18:22;4.35;;;2.10;;
32329;SDS011;18807;52.434;13.238;2023-02-19T06:26:04;4.33;;;2.03;;
32329;SDS011;18807;52.434;13.238;2023-02-19T06:33:41;6.05;;;2.38;;
32329;SDS011;18807;52.434;13.238;2023-02-19T06:41:17;4.50;;;2.58;;
32329;SDS011;18807;52.434;13.238;2023-02-19T06:48:51;4.97;;;2.05;;
32329;SDS011;18807;52.434;13.238;2023-02-19T06:56:28;5.93;;;1.87;;
32329;SDS011;18807;52.434;13.238;2023-02-19T07:04:03;7.50;;;1.90;;
32329;SDS011;18807;52.434;13.238;2023-02-19T07:11:40;3.88;;;2.03;;
32329;SDS011;18807;52.434;13.238;2023-02-19T07:19:31;4.07;;;2.25;;
32329;SDS011;18807;52.434;13.238;2023-02-19T07:27:07;6.43;;;2.90;;
32329;SDS011;18807;52.434;13.238;2023-02-19T07:34:41;4.70;;;2.10;;
32329;SDS011;18807;52.434;13.238;2023-02-19T07:42:16;5.77;;;2.20;;
32329;SDS011;18807;52.434;13.238;2023-02-19T07:49:50;6.90;;;2.65;;
32329;SDS011;18807;52.434;13.238;2023-02-19T07:57:25;7.33;;;2.67;;
32329;SDS011;18807;52.434;13.238;2023-02-19T08:05:00;9.38;;;2.40;;
32329;SDS011;18807;52.434;13.238;2023-02-19T08:12:35;5.03;;;2.40;;
32329;SDS011;18807;52.434;13.238;2023-02-19T08:20:26;10.82;;;2.42;;
32329;SDS011;18807;52.434;13.238;2023-02-19T08:28:02;4.67;;;2.57;;
32329;SDS011;18807;52.434;13.238;2023-02-19T08:35:36;5.00;;;2.20;;
32329;SDS011;18807;52.434;13.238;2023-02-19T08:43:12;6.63;;;2.33;;
32329;SDS011;18807;52.434;13.238;2023-02-19T08:50:54;7.57;;;2.03;;
32329;SDS011;18807;52.434;13.238;2023-02-19T08:58:30;6.53;;;1.85;;
32329;SDS011;18807;52.434;13.238;2023-02-19T09:06:05;6.05;;;2.30;;
32329;SDS011;18807;52.434;13.238;2023-02-19T09:13:41;4.28;;;1.52;;
32329;SDS011;18807;52.434;13.238;2023-02-19T09:21:16;10.32;;;1.45;;
32329;SDS011;18807;52.434;13.238;2023-02-19T09:28:51;3.33;;;1.43;;
32329;SDS011;18807;52.434;13.238;2023-02-19T09:36:25;3.38;;;2.05;;
32329;SDS011;18807;52.434;13.238;2023-02-19T09:44:01;2.80;;;1.23;;
32329;SDS011;18807;52.434;13.238;2023-02-19T09:51:37;9.88;;;2.17;;
32329;SDS011;18807;52.434;13.238;2023-02-19T09:59:17;6.72;;;0.90;;
32329;SDS011;18807;52.434;13.238;2023-02-19T10:06:53;6.50;;;1.40;;
32329;SDS011;18807;52.434;13.238;2023-02-19T10:14:36;5.07;;;1.00;;
32329;SDS011;18807;52.434;13.238;2023-02-19T10:22:14;8.38;;;1.20;;
32329;SDS011;18807;52.434;13.238;2023-02-19T10:29:49;4.85;;;0.80;;
32329;SDS011;18807;52.434;13.238;2023-02-19T10:37:26;5.18;;;1.63;;
32329;SDS011;18807;52.434;13.238;2023-02-19T10:45:02;7.90;;;1.07;;
32329;SDS011;18807;52.434;13.238;2023-02-19T10:52:36;7.20;;;0.75;;
32329;SDS011;18807;52.434;13.238;2023-02-19T11:00:19;3.55;;;0.90;;
32329;SDS011;18807;52.434;13.238;2023-02-19T11:08:00;9.82;;;1.02;;
32329;SDS011;18807;52.434;13.238;2023-02-19T11:15:35;2.85;;;0.90;;
32329;SDS011;18807;52.434;13.238;2023-02-19T11:23:12;0.60;;;0.40;;
32329;SDS011;18807;52.434;13.238;2023-02-19T11:30:49;1.83;;;0.73;;
32329;SDS011;18807;52.434;13.238;2023-02-19T11:38:23;3.42;;;0.60;;
32329;SDS011;18807;52.434;13.238;2023-02-19T11:46:00;4.10;;;0.60;;
32329;SDS011;18807;52.434;13.238;2023-02-19T11:53:42;3.00;;;1.00;;
32329;SDS011;18807;52.434;13.238;2023-02-19T12:01:25;4.40;;;0.93;;
32329;SDS011;18807;52.434;13.238;2023-02-19T12:09:13;1.83;;;0.77;;
32329;SDS011;18807;52.434;13.238;2023-02-19T12:16:58;2.90;;;0.70;;
32329;SDS011;18807;52.434;13.238;2023-02-19T12:24:49;3.17;;;0.60;;
32329;SDS011;18807;52.434;13.238;2023-02-19T12:40:42;3.15;;;0.68;;
32329;SDS011;18807;52.434;13.238;2023-02-19T12:48:25;2.20;;;0.68;;
32329;SDS011;18807;52.434;13.238;2023-02-19T12:56:08;2.87;;;0.80;;
32329;SDS011;18807;52.434;13.238;2023-02-19T13:03:49;4.85;;;0.70;;
32329;SDS011;18807;52.434;13.238;2023-02-19T13:11:27;3.88;;;0.65;;
32329;SDS011;18807;52.434;13.238;2023-02-19T13:19:09;5.05;;;0.70;;
32329;SDS011;18807;52.434;13.238;2023-02-19T13:34:58;1.85;;;0.50;;
32329;SDS011;18807;52.434;13.238;2023-02-19T13:43:00;5.13;;;0.88;;
32329;SDS011;18807;52.434;13.238;2023-02-19T13:59:22;5.63;;;0.70;;
32329;SDS011;18807;52.434;13.238;2023-02-19T14:15:39;3.50;;;0.50;;
32329;SDS011;18807;52.434;13.238;2023-02-19T14:23:16;0.43;;;0.40;;
32329;SDS011;18807;52.434;13.238;2023-02-19T14:30:57;1.73;;;0.63;;
32329;SDS011;18807;52.434;13.238;2023-02-19T14:38:35;3.30;;;0.30;;
32329;SDS011;18807;52.434;13.238;2023-02-19T14:46:15;2.10;;;0.50;;
32329;SDS011;18807;52.434;13.238;2023-02-19T14:53:56;3.03;;;0.50;;
32329;SDS011;18807;52.434;13.238;2023-02-19T15:01:35;6.57;;;0.60;;
32329;SDS011;18807;52.434;13.238;2023-02-19T15:09:11;3.17;;;0.38;;
32329;SDS011;18807;52.434;13.238;2023-02-19T15:16:47;2.72;;;0.60;;
32329;SDS011;18807;52.434;13.238;2023-02-19T15:24:23;2.75;;;0.63;;
32329;SDS011;18807;52.434;13.238;2023-02-19T15:31:58;5.97;;;0.80;;
32329;SDS011;18807;52.434;13.238;2023-02-19T15:39:34;1.27;;;0.57;;
32329;SDS011;18807;52.434;13.238;2023-02-19T15:47:14;4.53;;;0.82;;
32329;SDS011;18807;52.434;13.238;2023-02-19T15:54:56;1.43;;;0.60;;
32329;SDS011;18807;52.434;13.238;2023-02-19T16:02:36;1.42;;;0.70;;
32329;SDS011;18807;52.434;13.238;2023-02-19T16:10:18;1.63;;;0.40;;
32329;SDS011;18807;52.434;13.238;2023-02-19T16:17:56;2.97;;;0.50;;
32329;SDS011;18807;52.434;13.238;2023-02-19T16:25:33;1.25;;;0.60;;
32329;SDS011;18807;52.434;13.238;2023-02-19T16:33:26;3.35;;;1.50;;
32329;SDS011;18807;52.434;13.238;2023-02-19T16:41:10;1.48;;;0.90;;
32329;SDS011;18807;52.434;13.238;2023-02-19T16:48:49;0.88;;;0.40;;
32329;SDS011;18807;52.434;13.238;2023-02-19T16:56:24;4.35;;;1.00;;
32329;SDS011;18807;52.434;13.238;2023-02-19T17:03:59;2.42;;;0.90;;
32329;SDS011;18807;52.434;13.238;2023-02-19T17:11:37;2.38;;;1.05;;
32329;SDS011;18807;52.434;13.238;2023-02-19T17:19:14;1.93;;;1.00;;
32329;SDS011;18807;52.434;13.238;2023-02-19T17:26:49;5.72;;;1.60;;
32329;SDS011;18807;52.434;13.238;2023-02-19T17:34:25;3.27;;;2.00;;
32329;SDS011;18807;52.434;13.238;2023-02-19T17:42:16;3.08;;;1.73;;
32329;SDS011;18807;52.434;13.238;2023-02-19T17:57:26;5.57;;;2.28;;
32329;SDS011;18807;52.434;13.238;2023-02-19T18:05:06;8.15;;;3.00;;
32329;SDS011;18807;52.434;13.238;2023-02-19T18:12:40;6.45;;;3.17;;
32329;SDS011;18807;52.434;13.238;2023-02-19T18:20:17;6.13;;;3.58;;
32329;SDS011;18807;52.434;13.238;2023-02-19T18:35:45;7.53;;;3.83;;
32329;SDS011;18807;52.434;13.238;2023-02-19T18:43:21;6.05;;;3.92;;
32329;SDS011;18807;52.434;13.238;2023-02-19T18:50:57;7.78;;;4.18;;
32329;SDS011;18807;52.434;13.238;2023-02-19T18:58:31;9.13;;;4.63;;
32329;SDS011;18807;52.434;13.238;2023-02-19T19:13:41;7.95;;;4.05;;
32329;SDS011;18807;52.434;13.238;2023-02-19T19:21:16;9.83;;;5.10;;
32329;SDS011;18807;52.434;13.238;2023-02-19T19:28:50;12.32;;;5.70;;
32329;SDS011;18807;52.434;13.238;2023-02-19T19:36:25;11.47;;;4.97;;
32329;SDS011;18807;52.434;13.238;2023-02-19T19:44:00;7.50;;;4.90;;
32329;SDS011;18807;52.434;13.238;2023-02-19T19:57:54;11.93;;;5.47;;
32329;SDS011;18807;52.434;13.238;2023-02-19T20:05:28;9.98;;;5.60;;
32329;SDS011;18807;52.434;13.238;2023-02-19T20:13:03;12.53;;;4.73;;
32329;SDS011;18807;52.434;13.238;2023-02-19T20:20:37;10.10;;;4.75;;
32329;SDS011;18807;52.434;13.238;2023-02-19T20:28:12;9.87;;;5.30;;
32329;SDS011;18807;52.434;13.238;2023-02-19T20:35:46;15.40;;;8.95;;
32329;SDS011;18807;52.434;13.238;2023-02-19T20:43:22;19.87;;;10.00;;
32329;SDS011;18807;52.434;13.238;2023-02-19T20:50:55;19.05;;;10.02;;
32329;SDS011;18807;52.434;13.238;2023-02-19T20:58:32;13.55;;;7.88;;
32329;SDS011;18807;52.434;13.238;2023-02-19T21:06:06;12.05;;;6.78;;
32329;SDS011;18807;52.434;13.238;2023-02-19T21:13:42;9.57;;;6.18;;
32329;SDS011;18807;52.434;13.238;2023-02-19T21:21:16;8.65;;;5.47;;
32329;SDS011;18807;52.434;13.238;2023-02-19T21:28:53;10.88;;;5.90;;
32329;SDS011;18807;52.434;13.238;2023-02-19T21:36:28;13.25;;;6.20;;
32329;SDS011;18807;52.434;13.238;2023-02-19T21:44:03;9.73;;;4.85;;
32329;SDS011;18807;52.434;13.238;2023-02-19T21:51:38;8.23;;;5.50;;
32329;SDS011;18807;52.434;13.238;2023-02-19T21:59:14;12.00;;;5.93;;
32329;SDS011;18807;52.434;13.238;2023-02-19T22:06:48;8.40;;;4.72;;
32329;SDS011;18807;52.434;13.238;2023-02-19T22:14:24;7.18;;;4.30;;
32329;SDS011;18807;52.434;13.238;2023-02-19T22:21:57;8.63;;;4.55;;
32329;SDS011;18807;52.434;13.238;2023-02-19T22:29:33;9.05;;;5.30;;
32329;SDS011;18807;52.434;13.238;2023-02-19T22:37:07;8.25;;;4.38;;
32329;SDS011;18807;52.434;13.238;2023-02-19T22:44:42;7.85;;;4.15;;
32329;SDS011;18807;52.434;13.238;2023-02-19T22:52:16;5.05;;;3.00;;
32329;SDS011;18807;52.434;13.238;2023-02-19T22:59:51;4.55;;;3.10;;
32329;SDS011;18807;52.434;13.238;2023-02-19T23:07:25;4.70;;;3.13;;
32329;SDS011;18807;52.434;13.238;2023-02-19T23:15:01;3.63;;;2.47;;
32329;SDS011;18807;52.434;13.238;2023-02-19T23:22:35;4.07;;;2.40;;
32329;SDS011;18807;52.434;13.238;2023-02-19T23:30:10;3.55;;;2.28;;
32329;SDS011;18807;52.434;13.238;2023-02-19T23:37:46;5.22;;;2.90;;
32329;SDS011;18807;52.434;13.238;2023-02-19T23:45:21;5.70;;;2.58;;
32329;SDS011;18807;52.434;13.238;2023-02-19T23:52:56;4.97;;;3.17;;
